Avondale, Pennsylvania
Current Conditions -  °F | °C
As of 11:15 PM on Tuesday 21 Oct 2014 (Local Time) from KMQS Reporting Station
Moderate Rain Moderate Rain  
Wind Chill: 13°   Ceiling: 4200
Heat Index: 13°   Visibility: 3mi
Dew Point: 10°   Wind: 5mph
Humidity: 82%   Direction: 350°N
Pressure: 29.91"   Gusts: NA
Location:  39.82°N, 75.78°W
Report Text: KMQS 220315Z AUTO 35004KT 3SM RA FEW020 BKN042 13/10 A2991 RMK AO2 P0003
Loading
Personal Weather Stations






























Interactive Weather Map
Tropical Storm Tracking
New forecast layout! Learn more

10-Day Weather Forecast

Advertisements
Track Severe Weather on mobile